Time;durP1;ratioP1;P1;durP2;ratioP2;P2;SDS_P1;SDS_P2;PMS_P1;PMS_P2;Temp;Humidity;BMP_temperature;BMP_pressure;BME280_temperature;BME280_humidity;BME280_pressure;Samples;Min_cycle;Max_cycle;Signal;HPM_P1;HPM_P2
2022/12/05 00:02:10;;;;;;;1.33;0.40;;;;;;;6.97;100.00;100987.41;5096890;28;20035;-76
2022/12/05 00:04:35;;;;;;;1.20;0.40;;;;;;;7.00;100.00;100976.00;5098702;28;20032;-76
2022/12/05 00:07:01;;;;;;;2.53;0.68;;;;;;;6.97;100.00;100969.28;5102249;28;20027;-75
2022/12/05 00:09:26;;;;;;;0.80;0.30;;;;;;;6.96;100.00;100962.44;5094156;28;20123;-75
2022/12/05 00:11:52;;;;;;;0.70;0.30;;;;;;;6.97;100.00;100955.50;5097665;28;20032;-75
2022/12/05 00:14:17;;;;;;;1.98;0.20;;;;;;;7.06;100.00;100961.78;5094799;28;20032;-74
2022/12/05 00:16:43;;;;;;;1.20;0.30;;;;;;;6.99;100.00;100964.81;5094723;28;20036;-74
2022/12/05 00:19:12;;;;;;;0.85;0.30;;;;;;;6.92;100.00;100958.41;5102590;28;20042;-75
2022/12/05 00:21:38;;;;;;;0.90;0.28;;;;;;;6.84;100.00;100959.88;5103951;28;20078;-75
2022/12/05 00:24:06;;;;;;;0.60;0.20;;;;;;;6.80;100.00;100961.84;5101032;28;20023;-75
2022/12/05 00:26:32;;;;;;;1.55;0.22;;;;;;;6.73;100.00;100968.41;5096495;28;20044;-75
2022/12/05 00:28:58;;;;;;;0.52;0.30;;;;;;;6.66;100.00;100974.94;5097908;28;20116;-75
2022/12/05 00:31:25;;;;;;;1.60;0.30;;;;;;;6.59;100.00;100963.38;5100153;28;20126;-75
2022/12/05 00:33:52;;;;;;;0.82;0.28;;;;;;;6.54;100.00;100957.69;5094383;28;20348;-75
2022/12/05 00:36:26;;;;;;;2.58;0.40;;;;;;;6.54;100.00;100953.34;5091509;28;20039;-75
2022/12/05 00:38:52;;;;;;;1.60;0.22;;;;;;;6.48;100.00;100953.78;5090047;28;20434;-75
2022/12/05 00:41:21;;;;;;;2.13;0.30;;;;;;;6.48;100.00;100943.41;5086631;28;20033;-75
2022/12/05 00:43:47;;;;;;;3.22;0.20;;;;;;;6.49;100.00;100949.41;5088154;28;20035;-75
2022/12/05 00:46:22;;;;;;;0.47;0.20;;;;;;;6.45;100.00;100947.97;5088473;28;20058;-75
2022/12/05 00:48:48;;;;;;;0.30;0.20;;;;;;;6.43;100.00;100945.50;5087511;28;20056;-75
2022/12/05 00:51:20;;;;;;;0.90;0.30;;;;;;;6.38;100.00;100950.16;5089124;28;20036;-75
2022/12/05 00:53:46;;;;;;;0.65;0.30;;;;;;;6.34;100.00;100948.72;5088288;28;20188;-75
2022/12/05 00:56:14;;;;;;;0.68;0.20;;;;;;;6.35;100.00;100957.31;5090967;28;20030;-75
2022/12/05 00:58:40;;;;;;;1.40;0.30;;;;;;;6.44;100.00;100952.31;5087267;28;20395;-75
2022/12/05 01:01:09;;;;;;;0.40;0.20;;;;;;;6.46;100.00;100954.81;5089690;28;20027;-74
2022/12/05 01:03:35;;;;;;;1.08;0.40;;;;;;;6.46;100.00;100958.22;5088752;28;20090;-75
2022/12/05 01:06:01;;;;;;;0.80;0.30;;;;;;;6.41;100.00;100956.88;5086450;28;20029;-75
2022/12/05 01:08:27;;;;;;;0.77;0.30;;;;;;;6.37;100.00;100948.50;5071209;28;20387;-74
2022/12/05 01:10:53;;;;;;;1.25;0.20;;;;;;;6.35;100.00;100958.13;5071335;28;20032;-74
2022/12/05 01:13:19;;;;;;;0.73;0.20;;;;;;;6.37;100.00;100955.44;5086322;28;20144;-75
2022/12/05 01:15:44;;;;;;;1.35;0.30;;;;;;;6.38;100.00;100947.56;5089450;28;20578;-74
2022/12/05 01:18:10;;;;;;;0.63;0.28;;;;;;;6.35;100.00;100949.53;5087785;28;20495;-75
2022/12/05 01:20:38;;;;;;;1.30;0.20;;;;;;;6.41;100.00;100946.53;5088966;28;20459;-74
2022/12/05 01:23:04;;;;;;;1.95;0.22;;;;;;;6.41;100.00;100941.34;5087594;28;20032;-74
2022/12/05 01:25:29;;;;;;;0.70;0.30;;;;;;;6.41;100.00;100941.34;5070666;28;20419;-74
2022/12/05 01:27:54;;;;;;;0.60;0.30;;;;;;;6.44;100.00;100946.31;5086865;28;20375;-75
2022/12/05 01:30:20;;;;;;;0.60;0.30;;;;;;;6.41;100.00;100954.28;5084893;28;20459;-74
2022/12/05 01:32:45;;;;;;;1.90;0.22;;;;;;;6.39;100.00;100951.81;5086503;28;20050;-74
2022/12/05 01:35:11;;;;;;;0.65;0.25;;;;;;;6.37;100.00;100943.31;5088143;28;20051;-74
2022/12/05 01:37:36;;;;;;;1.08;0.30;;;;;;;6.35;100.00;100936.59;5087496;28;20119;-74
2022/12/05 01:40:03;;;;;;;0.77;0.32;;;;;;;6.35;100.00;100937.44;5083784;28;20036;-75
2022/12/05 01:42:28;;;;;;;2.53;0.30;;;;;;;6.28;100.00;100942.19;5087548;28;20047;-74
2022/12/05 01:44:58;;;;;;;0.80;0.30;;;;;;;6.27;100.00;100950.06;5086500;28;20031;-75
2022/12/05 01:47:26;;;;;;;1.38;0.35;;;;;;;6.20;100.00;100959.16;5086782;28;20130;-74
2022/12/05 01:49:53;;;;;;;0.65;0.30;;;;;;;6.15;100.00;100962.06;5087130;28;20028;-74
2022/12/05 01:52:25;;;;;;;1.00;0.20;;;;;;;6.22;100.00;100955.53;5083965;28;20081;-75
2022/12/05 01:54:55;;;;;;;2.55;0.30;;;;;;;6.31;100.00;100947.16;5086102;28;20039;-74
2022/12/05 01:57:22;;;;;;;1.63;0.20;;;;;;;6.31;100.00;100949.75;5086840;28;20035;-75
2022/12/05 01:59:54;;;;;;;0.80;0.30;;;;;;;6.28;100.00;100947.38;5088603;28;20040;-75
2022/12/05 02:02:20;;;;;;;0.50;0.22;;;;;;;6.28;100.00;100957.72;5088092;28;20095;-75
2022/12/05 02:04:57;;;;;;;0.65;0.35;;;;;;;6.27;100.00;100950.88;5086955;28;20475;-74
2022/12/05 02:07:22;;;;;;;3.22;0.50;;;;;;;6.25;100.00;100951.91;5084534;28;20024;-74
2022/12/05 02:09:50;;;;;;;0.73;0.52;;;;;;;6.25;100.00;100950.16;5086643;28;20023;-75
2022/12/05 02:12:19;;;;;;;1.52;0.40;;;;;;;6.22;100.00;100952.13;5086918;28;21562;-74
2022/12/05 02:15:20;;;;;;;0.93;0.38;;;;;;;6.19;100.00;100948.00;5088662;28;20032;-75
2022/12/05 02:18:03;;;;;;;1.15;0.40;;;;;;;6.22;100.00;100947.78;5098434;28;21226;-75
2022/12/05 02:20:34;;;;;;;0.77;0.30;;;;;;;6.23;100.00;100936.50;5081836;28;20107;-75
2022/12/05 02:23:09;;;;;;;5.75;0.30;;;;;;;6.20;100.00;100934.13;5101416;28;20023;-75
2022/12/05 02:26:12;;;;;;;1.27;0.30;;;;;;;6.20;100.00;100930.69;5093201;28;20097;-75
2022/12/05 02:29:01;;;;;;;2.92;0.40;;;;;;;6.25;100.00;100937.22;5090717;28;20394;-74
2022/12/05 02:31:35;;;;;;;1.67;0.40;;;;;;;6.32;100.00;100943.63;5090076;28;20058;-74
2022/12/05 02:34:28;;;;;;;0.80;0.60;;;;;;;6.37;100.00;100939.91;5102132;28;20485;-75
2022/12/05 02:37:05;;;;;;;1.00;0.45;;;;;;;6.41;100.00;100941.34;5089341;28;20051;-75
2022/12/05 02:39:44;;;;;;;1.13;0.32;;;;;;;6.41;100.00;100925.81;5091783;28;20037;-74
2022/12/05 02:42:17;;;;;;;1.77;0.30;;;;;;;6.41;100.00;100925.81;5096374;28;20035;-74
2022/12/05 02:44:58;;;;;;;0.88;0.20;;;;;;;6.39;100.00;100930.28;5095012;28;20044;-74
2022/12/05 02:47:28;;;;;;;3.42;0.30;;;;;;;6.40;100.00;100931.94;5088237;28;20511;-75
2022/12/05 02:49:56;;;;;;;0.88;0.22;;;;;;;6.36;100.00;100939.06;5091298;28;20032;-74
2022/12/05 02:52:23;;;;;;;1.70;0.45;;;;;;;6.40;100.00;100937.09;5089226;28;20394;-74
2022/12/05 02:54:52;;;;;;;2.40;0.50;;;;;;;6.40;100.00;100939.69;5090481;28;20058;-75
2022/12/05 02:57:19;;;;;;;2.60;0.30;;;;;;;6.47;100.00;100946.94;5096883;28;20435;-75
2022/12/05 02:59:45;;;;;;;2.67;0.50;;;;;;;6.43;100.00;100945.50;5093311;28;20039;-75
2022/12/05 03:02:26;;;;;;;0.60;0.40;;;;;;;6.42;100.00;100943.84;5099080;28;20027;-75
2022/12/05 03:04:54;;;;;;;0.77;0.30;;;;;;;6.54;100.00;100934.41;5094682;28;20039;-75
2022/12/05 03:07:22;;;;;;;1.95;0.30;;;;;;;6.63;100.00;100928.53;5095623;28;20034;-74
2022/12/05 03:09:53;;;;;;;2.67;0.45;;;;;;;6.65;100.00;100918.91;5094656;28;20094;-75
2022/12/05 03:12:21;;;;;;;1.65;0.40;;;;;;;6.62;100.00;100909.59;5079484;28;20218;-75
2022/12/05 03:15:00;;;;;;;0.70;0.30;;;;;;;6.63;100.00;100928.53;5094104;28;20039;-75
2022/12/05 03:17:31;;;;;;;2.40;0.22;;;;;;;6.61;100.00;100926.09;5093748;28;20078;-74
2022/12/05 03:20:04;;;;;;;2.60;0.30;;;;;;;6.61;100.00;100920.09;5093694;28;20023;-75
2022/12/05 03:22:52;;;;;;;0.63;0.25;;;;;;;6.66;100.00;100925.75;5091216;28;20116;-74
2022/12/05 03:25:22;;;;;;;2.00;0.30;;;;;;;6.71;100.00;100918.47;5095880;28;20048;-74
2022/12/05 03:27:57;;;;;;;1.58;0.30;;;;;;;6.75;100.00;100930.28;5093803;28;20032;-75
2022/12/05 03:30:23;;;;;;;2.45;0.30;;;;;;;6.79;100.00;100926.53;5103939;28;20475;-75
2022/12/05 03:32:58;;;;;;;3.65;0.70;;;;;;;6.81;100.00;100927.25;5095045;28;20161;-74
2022/12/05 03:35:35;;;;;;;2.53;0.43;;;;;;;6.76;100.00;100923.34;5093075;28;20027;-75
2022/12/05 03:38:27;;;;;;;1.60;0.30;;;;;;;6.69;100.00;100920.34;5095122;28;20039;-74
2022/12/05 03:41:05;;;;;;;0.88;0.40;;;;;;;6.62;100.00;100926.88;5096056;28;20378;-74
2022/12/05 03:43:45;;;;;;;1.90;0.30;;;;;;;6.61;100.00;100927.84;5104133;28;20024;-75
2022/12/05 03:46:20;;;;;;;2.05;0.40;;;;;;;6.55;100.00;100916.16;5095983;28;20378;-74
2022/12/05 03:49:10;;;;;;;0.45;0.20;;;;;;;6.58;100.00;100917.72;5096932;28;20089;-74
2022/12/05 03:51:49;;;;;;;1.33;0.28;;;;;;;6.64;100.00;100917.25;5093702;28;20085;-75
2022/12/05 03:54:24;;;;;;;0.70;0.25;;;;;;;6.70;100.00;100905.63;5093650;28;20451;-75
2022/12/05 03:57:03;;;;;;;2.10;0.30;;;;;;;6.71;100.00;100913.31;5092715;28;20428;-75
2022/12/05 03:59:37;;;;;;;1.38;0.40;;;;;;;6.71;100.00;100902.13;5092075;28;20028;-74
2022/12/05 04:02:44;;;;;;;1.83;0.32;;;;;;;6.75;100.00;100906.97;5093748;28;20071;-74
2022/12/05 04:05:15;;;;;;;1.08;0.30;;;;;;;6.81;100.00;100906.53;5072183;28;20047;-74
2022/12/05 04:07:44;;;;;;;1.75;0.20;;;;;;;6.85;100.00;100902.78;5097597;28;20040;-74
2022/12/05 04:10:17;;;;;;;0.68;0.30;;;;;;;6.88;100.00;100899.16;5094305;28;20043;-75
2022/12/05 04:12:45;;;;;;;0.88;0.30;;;;;;;6.90;100.00;100897.28;5098261;28;20059;-74
2022/12/05 04:15:22;;;;;;;1.15;0.30;;;;;;;6.87;100.00;100893.16;5094048;28;20054;-75
2022/12/05 04:17:56;;;;;;;2.70;0.20;;;;;;;6.90;100.00;100890.34;5096423;28;20035;-74
2022/12/05 04:23:20;;;;;;;0.65;0.30;;;;;;;6.93;100.00;100886.69;5095241;28;20081;-75
2022/12/05 04:26:01;;;;;;;0.80;0.22;;;;;;;6.93;100.00;100884.94;5099494;28;20435;-75
2022/12/05 04:28:32;;;;;;;1.80;0.30;;;;;;;6.97;100.00;100878.59;5096191;28;20027;-75
2022/12/05 04:31:09;;;;;;;1.52;0.32;;;;;;;7.01;100.00;100886.16;5099880;28;20026;-74
2022/12/05 04:33:49;;;;;;;1.92;0.47;;;;;;;7.04;100.00;100883.34;5098079;28;20036;-74
2022/12/05 04:36:21;;;;;;;1.92;0.40;;;;;;;6.98;100.00;100875.06;5092552;28;20028;-73
2022/12/05 04:39:04;;;;;;;2.17;0.65;;;;;;;6.97;100.00;100880.38;5092925;28;20027;-74
2022/12/05 04:42:01;;;;;;;2.03;0.30;;;;;;;7.03;100.00;100873.91;5098600;28;20126;-74
2022/12/05 04:44:32;;;;;;;0.73;0.30;;;;;;;7.00;100.00;100867.19;5096809;28;20050;-74
2022/12/05 04:47:02;;;;;;;1.95;0.40;;;;;;;7.01;100.00;100870.59;5094323;28;20064;-74
2022/12/05 04:49:31;;;;;;;0.90;0.30;;;;;;;6.96;100.00;100871.75;5095168;28;20047;-74
2022/12/05 04:52:03;;;;;;;0.90;0.35;;;;;;;6.94;100.00;100878.81;5098192;28;20077;-74
2022/12/05 04:54:33;;;;;;;0.80;0.30;;;;;;;6.88;100.00;100894.81;5092030;28;20039;-75
2022/12/05 04:57:11;;;;;;;1.05;0.32;;;;;;;6.83;100.00;100891.72;5093671;28;20286;-75
2022/12/05 04:59:37;;;;;;;2.08;0.43;;;;;;;6.77;100.00;100905.09;5090504;28;20110;-75
2022/12/05 05:02:07;;;;;;;4.72;0.75;;;;;;;6.64;100.00;100896.53;5097784;28;20127;-73
2022/12/05 05:04:39;;;;;;;1.80;0.50;;;;;;;6.45;100.00;100911.72;5090383;28;20513;-74
2022/12/05 05:07:10;;;;;;;4.38;0.65;;;;;;;6.29;100.00;100917.97;5090651;28;20418;-73
2022/12/05 05:09:37;;;;;;;1.30;0.50;;;;;;;6.25;100.00;100911.34;5093708;28;20027;-72
2022/12/05 05:12:03;;;;;;;1.88;0.68;;;;;;;6.21;100.00;100915.06;5091484;28;20043;-73
2022/12/05 05:14:29;;;;;;;2.55;1.13;;;;;;;6.28;100.00;100915.47;5092528;28;20044;-72
2022/12/05 05:16:55;;;;;;;4.53;0.40;;;;;;;6.28;100.00;100911.13;5091500;28;20028;-75
2022/12/05 05:19:20;;;;;;;4.10;0.60;;;;;;;6.30;100.00;100909.28;5093674;28;20123;-75
2022/12/05 05:21:47;;;;;;;4.13;0.63;;;;;;;6.32;100.00;100916.94;5097477;28;20111;-74
2022/12/05 05:24:14;;;;;;;0.93;0.55;;;;;;;6.38;100.00;100920.84;5102413;28;20063;-75
2022/12/05 05:26:41;;;;;;;3.70;1.02;;;;;;;6.42;100.00;100922.31;5088125;28;20111;-74
2022/12/05 05:29:08;;;;;;;2.22;0.80;;;;;;;6.45;100.00;100922.91;5092206;28;20424;-75
2022/12/05 05:31:34;;;;;;;2.47;0.65;;;;;;;6.41;100.00;100910.28;5090318;28;20039;-75
2022/12/05 05:34:00;;;;;;;3.25;0.63;;;;;;;6.33;100.00;100914.22;5093996;28;20094;-75
2022/12/05 05:36:27;;;;;;;3.40;0.63;;;;;;;6.30;100.00;100934.31;5090117;28;20682;-75
2022/12/05 05:38:56;;;;;;;4.07;1.27;;;;;;;6.24;100.00;100929.56;5088906;28;20563;-74
2022/12/05 05:41:27;;;;;;;2.00;0.98;;;;;;;6.21;100.00;100937.53;5092403;28;20047;-74
2022/12/05 05:43:53;;;;;;;3.95;0.70;;;;;;;6.23;100.00;100943.44;5092470;28;20039;-74
2022/12/05 05:46:22;;;;;;;4.05;0.90;;;;;;;6.29;100.00;100940.44;5094006;28;20027;-75
2022/12/05 05:48:48;;;;;;;3.47;1.33;;;;;;;6.33;100.00;100934.13;5090421;28;20039;-74
2022/12/05 05:51:14;;;;;;;3.15;1.20;;;;;;;6.45;100.00;100943.63;5091116;28;20024;-73
2022/12/05 05:53:40;;;;;;;4.93;1.65;;;;;;;6.46;100.00;100937.50;5091456;28;20156;-74
2022/12/05 05:56:12;;;;;;;4.07;1.58;;;;;;;6.39;100.00;100943.22;5092482;28;20502;-74
2022/12/05 05:58:38;;;;;;;8.07;2.03;;;;;;;6.43;100.00;100944.66;5092613;28;20114;-74
2022/12/05 06:01:05;;;;;;;2.25;1.02;;;;;;;6.55;100.00;100949.00;5087555;28;20033;-75
2022/12/05 06:03:31;;;;;;;2.63;1.40;;;;;;;6.62;100.00;100950.19;5069671;28;20035;-74
2022/12/05 06:05:58;;;;;;;8.63;2.03;;;;;;;6.62;100.00;100950.19;5086238;28;20561;-74
2022/12/05 06:08:23;;;;;;;5.68;1.83;;;;;;;6.53;100.00;100946.50;5086803;28;20386;-75
2022/12/05 06:10:49;;;;;;;4.47;1.55;;;;;;;6.50;100.00;100953.66;5087129;28;20036;-75
2022/12/05 06:13:14;;;;;;;7.50;2.45;;;;;;;6.46;100.00;100950.47;5085047;28;20028;-74
2022/12/05 06:15:40;;;;;;;6.05;2.28;;;;;;;6.50;100.00;100956.25;5091764;28;20119;-74
2022/12/05 06:18:05;;;;;;;6.95;1.48;;;;;;;6.58;100.00;100948.78;5085894;28;20039;-74
2022/12/05 06:20:30;;;;;;;4.05;1.50;;;;;;;6.65;100.00;100947.38;5086774;28;20024;-74
2022/12/05 06:22:56;;;;;;;9.77;2.10;;;;;;;6.69;100.00;100951.41;5086344;28;20105;-74
2022/12/05 06:25:21;;;;;;;3.90;1.60;;;;;;;6.74;100.00;100953.69;5090620;28;20059;-74
2022/12/05 06:27:47;;;;;;;7.68;2.00;;;;;;;6.75;100.00;100958.75;5079134;28;20054;-75
2022/12/05 06:30:13;;;;;;;6.10;2.42;;;;;;;6.74;100.00;100938.97;5093222;28;20486;-74
2022/12/05 06:32:38;;;;;;;4.82;2.17;;;;;;;6.79;100.00;100952.44;5067778;28;20024;-74
2022/12/05 06:35:13;;;;;;;9.23;2.70;;;;;;;6.77;100.00;100958.66;5073042;28;20085;-75
2022/12/05 06:37:39;;;;;;;4.00;1.52;;;;;;;6.79;100.00;100962.78;5092977;28;20570;-74
2022/12/05 06:40:05;;;;;;;6.50;2.58;;;;;;;6.88;100.00;100953.56;5093476;28;20037;-74
2022/12/05 06:42:31;;;;;;;5.40;2.40;;;;;;;6.97;100.00;100951.13;5089239;28;20032;-74
2022/12/05 06:44:57;;;;;;;5.63;2.17;;;;;;;7.04;100.00;100948.13;5093649;28;20035;-75
2022/12/05 06:47:22;;;;;;;6.55;2.60;;;;;;;7.01;100.00;100950.91;5088172;28;20199;-75
2022/12/05 06:49:47;;;;;;;38.55;13.38;;;;;;;6.83;100.00;100953.03;5095048;28;20121;-74
2022/12/05 06:52:13;;;;;;;55.88;22.05;;;;;;;6.74;100.00;100948.50;5092252;28;20092;-74
2022/12/05 06:54:38;;;;;;;65.10;26.10;;;;;;;6.66;100.00;100951.63;5091533;28;20099;-74
2022/12/05 06:57:04;;;;;;;29.70;13.18;;;;;;;6.68;100.00;100954.13;5081524;28;20145;-74
2022/12/05 06:59:29;;;;;;;14.50;7.47;;;;;;;6.66;100.00;100954.22;5089761;28;20128;-74
2022/12/05 07:01:55;;;;;;;11.32;3.80;;;;;;;6.61;100.00;100951.16;5096736;28;20356;-75
2022/12/05 07:04:25;;;;;;;5.00;1.83;;;;;;;6.60;100.00;100952.09;5090586;28;20140;-75
2022/12/05 07:06:53;;;;;;;3.30;1.77;;;;;;;6.61;100.00;100964.09;5090401;28;20406;-75
2022/12/05 07:09:22;;;;;;;5.57;1.33;;;;;;;6.61;100.00;100969.28;5094227;28;20028;-75
2022/12/05 07:11:49;;;;;;;3.58;0.85;;;;;;;6.60;100.00;100959.84;5095391;28;20047;-74
2022/12/05 07:14:15;;;;;;;9.25;3.80;;;;;;;6.55;100.00;100965.34;5095692;28;20039;-75
2022/12/05 07:16:40;;;;;;;9.90;4.50;;;;;;;6.57;100.00;100960.91;5094733;28;20036;-74
2022/12/05 07:19:06;;;;;;;8.73;3.85;;;;;;;6.64;100.00;100963.84;5089807;28;20084;-75
2022/12/05 07:21:31;;;;;;;8.38;2.55;;;;;;;6.74;100.00;100964.06;5088314;28;20040;-75
2022/12/05 07:23:57;;;;;;;4.47;1.95;;;;;;;6.82;100.00;100966.94;5096326;28;20040;-74
2022/12/05 07:26:23;;;;;;;3.92;2.63;;;;;;;6.81;100.00;100965.28;5089004;28;20032;-75
2022/12/05 07:28:49;;;;;;;4.95;1.83;;;;;;;6.82;100.00;100961.75;5094171;28;20024;-76
2022/12/05 07:31:18;;;;;;;7.63;1.40;;;;;;;6.87;100.00;100957.91;5089893;28;20182;-75
2022/12/05 07:33:44;;;;;;;4.18;1.40;;;;;;;6.88;100.00;100956.97;5092181;28;20089;-75
2022/12/05 07:36:13;;;;;;;4.90;1.60;;;;;;;6.93;100.00;100948.88;5090017;28;20428;-75
2022/12/05 07:38:39;;;;;;;4.65;1.33;;;;;;;6.97;100.00;100945.97;5093601;28;20043;-75
2022/12/05 07:41:07;;;;;;;4.53;1.95;;;;;;;7.06;100.00;100943.66;5093789;28;20024;-75
2022/12/05 07:43:33;;;;;;;2.95;1.00;;;;;;;7.00;100.00;100944.91;5085016;28;20051;-76
2022/12/05 07:46:04;;;;;;;2.92;1.20;;;;;;;6.97;100.00;100937.34;5099619;28;20028;-74
2022/12/05 07:48:29;;;;;;;3.05;1.38;;;;;;;6.96;100.00;100944.31;5095827;28;20032;-74
2022/12/05 07:50:59;;;;;;;3.33;1.48;;;;;;;6.92;100.00;100937.69;5097486;28;20043;-74
2022/12/05 07:53:25;;;;;;;5.13;1.10;;;;;;;6.86;100.00;100916.56;5096766;28;20490;-73
2022/12/05 07:55:50;;;;;;;3.15;1.20;;;;;;;6.90;100.00;100918.00;5097793;28;20023;-74
2022/12/05 07:58:16;;;;;;;3.60;1.40;;;;;;;6.86;100.00;100920.00;5096244;28;20371;-74
2022/12/05 08:00:41;;;;;;;2.28;0.90;;;;;;;6.81;100.00;100916.91;5090253;28;20039;-73
2022/12/05 08:03:06;;;;;;;2.75;1.05;;;;;;;6.81;100.00;100935.03;5096409;28;20063;-74
2022/12/05 08:05:32;;;;;;;7.65;1.75;;;;;;;6.88;100.00;100941.44;5093908;28;23188;-74
2022/12/05 08:07:57;;;;;;;3.88;1.20;;;;;;;6.93;100.00;100947.13;5098616;28;20078;-74
2022/12/05 08:10:23;;;;;;;2.55;1.00;;;;;;;6.92;100.00;100929.91;5100051;28;20038;-75
2022/12/05 08:12:49;;;;;;;3.40;0.70;;;;;;;6.94;100.00;100966.91;5094231;28;20044;-75
2022/12/05 08:15:14;;;;;;;9.57;1.40;;;;;;;6.98;100.00;100967.50;5093322;28;20063;-74
2022/12/05 08:17:40;;;;;;;4.10;1.63;;;;;;;7.04;100.00;100948.13;5090150;28;20089;-74
2022/12/05 08:20:06;;;;;;;3.63;1.60;;;;;;;7.03;100.00;100951.63;5090208;28;20463;-74
2022/12/05 08:22:31;;;;;;;4.50;2.20;;;;;;;7.04;100.00;100951.53;5089371;28;20038;-74
2022/12/05 08:24:57;;;;;;;5.38;2.17;;;;;;;6.94;100.00;100955.72;5093727;28;20040;-74
2022/12/05 08:27:22;;;;;;;3.03;1.25;;;;;;;6.91;100.00;100966.28;5088965;28;20032;-74
2022/12/05 08:29:47;;;;;;;1.90;1.00;;;;;;;6.84;100.00;100967.66;5088899;28;20034;-75
2022/12/05 08:32:13;;;;;;;1.50;0.70;;;;;;;6.76;100.00;100973.38;5088256;28;20123;-74
2022/12/05 08:34:38;;;;;;;4.00;0.82;;;;;;;6.67;100.00;100966.25;5086322;28;20115;-75
2022/12/05 08:37:04;;;;;;;3.53;0.90;;;;;;;6.60;100.00;100967.63;5087237;28;20581;-72
2022/12/05 08:39:30;;;;;;;4.15;0.80;;;;;;;6.66;100.00;100952.47;5087455;28;20028;-74
2022/12/05 08:41:56;;;;;;;3.78;0.98;;;;;;;6.72;100.00;100947.78;5088514;28;20032;-74
2022/12/05 08:44:21;;;;;;;2.30;0.70;;;;;;;6.70;100.00;100968.63;5088634;28;20028;-75
2022/12/05 08:46:48;;;;;;;4.38;0.95;;;;;;;6.75;100.00;100994.19;5079074;28;20077;-75
2022/12/05 08:49:15;;;;;;;3.30;1.08;;;;;;;6.80;100.00;100984.34;5088694;28;20028;-75
2022/12/05 08:51:42;;;;;;;4.35;1.13;;;;;;;6.88;100.00;100993.22;5088220;28;20493;-75
2022/12/05 08:54:08;;;;;;;4.57;0.95;;;;;;;6.88;100.00;100987.22;5088209;28;20462;-75
2022/12/05 08:56:34;;;;;;;1.40;0.68;;;;;;;6.85;100.00;100993.44;5092317;28;20024;-75
2022/12/05 08:59:01;;;;;;;3.83;0.95;;;;;;;6.84;100.00;100991.78;5089245;28;20138;-75
2022/12/05 09:01:30;;;;;;;3.13;1.00;;;;;;;6.79;100.00;101004.22;5094390;28;20415;-74
2022/12/05 09:03:59;;;;;;;2.97;1.08;;;;;;;6.79;100.00;101009.41;5088189;28;20440;-75
2022/12/05 09:06:26;;;;;;;2.72;1.15;;;;;;;6.78;100.00;101012.94;5092204;28;20028;-75
2022/12/05 09:08:56;;;;;;;3.80;1.23;;;;;;;6.80;100.00;101018.84;5095755;28;20020;-74
2022/12/05 09:11:24;;;;;;;3.97;1.63;;;;;;;6.82;100.00;101014.38;5091695;28;20040;-74
2022/12/05 09:13:51;;;;;;;3.47;1.15;;;;;;;6.86;100.00;101000.28;5094577;28;20047;-75
2022/12/05 09:16:22;;;;;;;3.63;0.82;;;;;;;6.89;100.00;100997.47;5090954;28;20123;-75
2022/12/05 09:18:49;;;;;;;3.05;1.10;;;;;;;6.96;100.00;101001.28;5090034;28;20028;-76
2022/12/05 09:21:20;;;;;;;5.85;1.60;;;;;;;7.03;100.00;101006.88;5091979;28;20720;-76
2022/12/05 09:23:46;;;;;;;5.28;1.65;;;;;;;7.10;100.00;100997.69;5099570;28;20035;-76
2022/12/05 09:26:15;;;;;;;2.90;1.05;;;;;;;7.22;100.00;100983.06;5091868;28;20047;-75
2022/12/05 09:28:41;;;;;;;3.30;2.03;;;;;;;7.24;100.00;100988.94;5076929;28;20059;-75
2022/12/05 09:31:12;;;;;;;1.67;0.85;;;;;;;7.18;100.00;100979.84;5094446;28;20042;-76
2022/12/05 09:33:38;;;;;;;2.42;1.00;;;;;;;7.15;100.00;100977.47;5098038;28;20027;-76
2022/12/05 09:36:05;;;;;;;2.03;1.27;;;;;;;7.18;100.00;100979.03;5094322;28;20036;-76
2022/12/05 09:38:31;;;;;;;2.00;0.70;;;;;;;7.20;100.00;100983.16;5079810;28;20032;-75
2022/12/05 09:44:19;;;;;;;2.92;0.50;;;;;;;7.17;100.00;100978.19;5097190;28;20467;-74
2022/12/05 09:46:59;;;;;;;2.55;0.88;;;;;;;7.16;100.00;100978.31;5093220;28;20047;-75
2022/12/05 09:49:26;;;;;;;1.90;0.47;;;;;;;7.11;100.00;100985.56;5102800;28;20093;-77
2022/12/05 09:51:53;;;;;;;2.40;0.80;;;;;;;7.14;100.00;100990.53;5104737;28;20136;-77
2022/12/05 09:54:20;;;;;;;3.47;0.88;;;;;;;7.21;100.00;100982.22;5098805;28;20024;-76
2022/12/05 09:56:49;;;;;;;7.80;1.23;;;;;;;7.28;100.00;100985.19;5097937;28;20024;-75
2022/12/05 09:59:16;;;;;;;2.70;1.63;;;;;;;7.32;100.00;100982.28;5098379;28;20032;-75
2022/12/05 10:02:03;;;;;;;4.50;1.13;;;;;;;7.39;100.00;100972.28;5100957;28;20400;-75
2022/12/05 10:04:34;;;;;;;3.88;1.70;;;;;;;7.41;100.00;100970.41;5093857;28;20494;-75
2022/12/05 10:07:24;;;;;;;3.75;1.58;;;;;;;7.44;100.00;100969.38;5094444;28;20046;-75
2022/12/05 10:10:28;;;;;;;2.63;1.33;;;;;;;7.44;100.00;100970.19;5093702;28;20451;-75
2022/12/05 10:13:20;;;;;;;4.78;1.20;;;;;;;7.38;100.00;100973.25;5063804;28;20062;-74
2022/12/05 10:15:55;;;;;;;26.30;8.52;;;;;;;7.34;100.00;100969.22;5097694;28;20043;-74
2022/12/05 10:18:26;;;;;;;5.35;1.45;;;;;;;7.35;100.00;100964.84;5101516;28;20043;-74
2022/12/05 10:21:04;;;;;;;2.13;0.98;;;;;;;7.33;100.00;100967.56;5095259;28;21363;-74
2022/12/05 10:23:51;;;;;;;2.35;0.90;;;;;;;7.32;100.00;100965.91;5092665;28;20034;-74
2022/12/05 10:26:19;;;;;;;1.35;0.55;;;;;;;7.28;100.00;100970.47;5095369;28;20044;-73
2022/12/05 10:28:57;;;;;;;1.38;0.50;;;;;;;7.26;100.00;100963.75;5090295;28;20898;-74
2022/12/05 10:31:32;;;;;;;1.20;0.43;;;;;;;7.29;100.00;100963.53;5089160;28;20119;-74
2022/12/05 10:34:37;;;;;;;1.00;0.40;;;;;;;7.37;100.00;100958.63;5092414;28;20107;-74
2022/12/05 10:37:18;;;;;;;2.03;0.55;;;;;;;7.48;100.00;100956.06;5088047;28;20040;-75
2022/12/05 10:39:45;;;;;;;2.00;0.60;;;;;;;7.56;100.00;100951.13;5088735;28;20028;-74
2022/12/05 10:42:20;;;;;;;2.35;0.60;;;;;;;7.61;100.00;100946.44;5083822;28;20032;-74
2022/12/05 10:44:47;;;;;;;3.20;0.65;;;;;;;7.66;100.00;100944.31;5079633;28;20085;-74
2022/12/05 10:47:12;;;;;;;1.60;0.60;;;;;;;7.70;100.00;100934.53;5065269;28;20070;-74
2022/12/05 10:49:38;;;;;;;1.25;0.50;;;;;;;7.74;100.00;100948.13;5085706;28;20470;-74
2022/12/05 10:52:04;;;;;;;3.20;0.68;;;;;;;7.71;100.00;100946.56;5082605;28;20028;-74
2022/12/05 10:54:35;;;;;;;2.65;0.38;;;;;;;7.66;100.00;100936.53;5093321;28;20047;-75
2022/12/05 10:57:20;;;;;;;2.00;0.60;;;;;;;7.68;100.00;100938.19;5085448;28;20601;-74
2022/12/05 10:59:46;;;;;;;1.80;0.40;;;;;;;7.73;100.00;100930.91;5095486;28;20028;-74
2022/12/05 11:02:32;;;;;;;3.28;0.50;;;;;;;7.72;100.00;100931.84;5096154;28;20046;-74
2022/12/05 11:04:58;;;;;;;2.88;0.50;;;;;;;7.72;100.00;100924.88;5094540;28;20032;-75
2022/12/05 11:07:27;;;;;;;3.30;0.55;;;;;;;7.74;100.00;100940.34;5088685;28;20081;-74
2022/12/05 11:09:53;;;;;;;2.70;0.70;;;;;;;7.76;100.00;100933.25;5088945;28;20038;-75
2022/12/05 11:12:26;;;;;;;2.67;0.55;;;;;;;7.85;100.00;100935.16;5095657;28;20390;-75
2022/12/05 11:14:54;;;;;;;1.85;0.50;;;;;;;7.86;100.00;100931.63;5091866;28;20566;-75
2022/12/05 11:17:34;;;;;;;3.10;0.60;;;;;;;7.80;100.00;100924.31;5091640;28;20467;-73
2022/12/05 11:19:59;;;;;;;1.80;0.50;;;;;;;7.76;100.00;100928.91;5095425;28;20101;-73
2022/12/05 11:22:33;;;;;;;3.05;0.73;;;;;;;7.73;100.00;100929.13;5078557;28;20070;-73
2022/12/05 11:24:59;;;;;;;2.15;0.73;;;;;;;7.74;100.00;100917.00;5089929;28;20116;-72
2022/12/05 11:27:31;;;;;;;4.63;0.70;;;;;;;7.76;100.00;100915.09;5072869;28;20475;-72
2022/12/05 11:30:04;;;;;;;3.97;0.50;;;;;;;7.80;100.00;100919.13;5094728;28;20089;-72
2022/12/05 11:32:31;;;;;;;3.72;0.90;;;;;;;7.79;100.00;100913.09;5091611;28;20486;-73
2022/12/05 11:35:12;;;;;;;3.38;1.13;;;;;;;7.74;100.00;100909.22;5092930;28;20035;-72
2022/12/05 11:37:58;;;;;;;1.52;0.60;;;;;;;7.73;100.00;100908.38;5092276;28;20072;-73
2022/12/05 11:40:32;;;;;;;;;;;;;;;7.69;100.00;100901.78;5095512;28;20054;-72
2022/12/05 11:43:22;;;;;;;3.00;0.85;;;;;;;7.66;100.00;100897.63;5091868;28;20375;-75
2022/12/05 11:46:08;;;;;;;4.05;0.70;;;;;;;7.63;100.00;100903.06;5092088;28;20468;-74